Terminal Aerodrome Forecast
Issued by NWS

Home | Current Version | Previous Version | Graphics & Text | Print | Product List | Glossary Off
Versions: 1 2 3 4 5 6 7 8 9 10 11 12 13 14 15 16 17 18 19 20 21 22 23 24 25 26 27 28 29

000
FTUS43 KDDC 280540
TAFGCK
TAF
KGCK 280540Z 2806/2906 17018KT P6SM SKC
     FM281500 24012G18KT P6SM SKC
      TEMPO 2823/2903 VRB20G40KT 3SM +TSRA BKN050CB
     FM290400 01011KT P6SM VCTS OVC050CB=

USA.gov is the U.S. government's official web portal to all federal, state and local government web resources and services.